sensor_id;sensor_type;location;lat;lon;timestamp;pressure;altitude;pressure_sealevel;temperature;humidity
16690;BME280;8458;52.220;9.884;2023-03-21T00:00:26;100888.78;;;8.42;100.00
16690;BME280;8458;52.220;9.884;2023-03-21T00:02:53;100883.19;;;8.49;100.00
16690;BME280;8458;52.220;9.884;2023-03-21T00:05:21;100879.66;;;8.42;100.00
16690;BME280;8458;52.220;9.884;2023-03-21T00:07:47;100879.91;;;8.40;100.00
16690;BME280;8458;52.220;9.884;2023-03-21T00:10:14;100879.47;;;8.43;100.00
16690;BME280;8458;52.220;9.884;2023-03-21T00:12:40;100868.41;;;8.43;100.00
16690;BME280;8458;52.220;9.884;2023-03-21T00:15:09;100868.88;;;8.40;100.00
16690;BME280;8458;52.220;9.884;2023-03-21T00:17:37;100876.81;;;8.37;100.00
16690;BME280;8458;52.220;9.884;2023-03-21T00:20:05;100872.69;;;8.39;100.00
16690;BME280;8458;52.220;9.884;2023-03-21T00:22:41;100870.56;;;8.41;100.00
16690;BME280;8458;52.220;9.884;2023-03-21T00:25:08;100873.06;;;8.43;100.00
16690;BME280;8458;52.220;9.884;2023-03-21T00:27:35;100869.59;;;8.48;100.00
16690;BME280;8458;52.220;9.884;2023-03-21T00:30:03;100863.81;;;8.49;100.00
16690;BME280;8458;52.220;9.884;2023-03-21T00:32:30;100871.75;;;8.46;100.00
16690;BME280;8458;52.220;9.884;2023-03-21T00:34:56;100862.88;;;8.43;100.00
16690;BME280;8458;52.220;9.884;2023-03-21T00:37:23;100863.22;;;8.47;100.00
16690;BME280;8458;52.220;9.884;2023-03-21T00:39:53;100859.50;;;8.41;100.00
16690;BME280;8458;52.220;9.884;2023-03-21T00:42:20;100855.63;;;8.42;100.00
16690;BME280;8458;52.220;9.884;2023-03-21T00:44:46;100854.81;;;8.42;100.00
16690;BME280;8458;52.220;9.884;2023-03-21T00:47:13;100856.63;;;8.36;100.00
16690;BME280;8458;52.220;9.884;2023-03-21T00:49:39;100853.97;;;8.41;100.00
16690;BME280;8458;52.220;9.884;2023-03-21T00:52:07;100856.63;;;8.36;100.00
16690;BME280;8458;52.220;9.884;2023-03-21T00:54:35;100851.69;;;8.38;100.00
16690;BME280;8458;52.220;9.884;2023-03-21T00:57:03;100845.94;;;8.40;100.00
16690;BME280;8458;52.220;9.884;2023-03-21T00:59:30;100846.75;;;8.40;100.00
16690;BME280;8458;52.220;9.884;2023-03-21T01:01:56;100853.13;;;8.41;100.00
16690;BME280;8458;52.220;9.884;2023-03-21T01:04:24;100845.56;;;8.36;100.00
16690;BME280;8458;52.220;9.884;2023-03-21T01:06:51;100830.91;;;8.36;100.00
16690;BME280;8458;52.220;9.884;2023-03-21T01:09:20;100838.38;;;8.35;100.00
16690;BME280;8458;52.220;9.884;2023-03-21T01:11:47;100838.38;;;8.35;100.00
16690;BME280;8458;52.220;9.884;2023-03-21T01:14:17;100835.94;;;8.39;100.00
16690;BME280;8458;52.220;9.884;2023-03-21T01:16:44;100836.53;;;8.41;100.00
16690;BME280;8458;52.220;9.884;2023-03-21T01:19:13;100835.25;;;8.43;100.00
16690;BME280;8458;52.220;9.884;2023-03-21T01:21:40;100831.63;;;8.43;100.00
16690;BME280;8458;52.220;9.884;2023-03-21T01:24:07;100828.50;;;8.39;100.00
16690;BME280;8458;52.220;9.884;2023-03-21T01:26:35;100825.72;;;8.39;100.00
16690;BME280;8458;52.220;9.884;2023-03-21T01:29:02;100832.84;;;8.35;100.00
16690;BME280;8458;52.220;9.884;2023-03-21T01:31:30;100829.84;;;8.37;100.00
16690;BME280;8458;52.220;9.884;2023-03-21T01:33:56;100826.84;;;8.38;100.00
16690;BME280;8458;52.220;9.884;2023-03-21T01:36:24;100825.13;;;8.49;100.00
16690;BME280;8458;52.220;9.884;2023-03-21T01:38:52;100832.38;;;8.38;100.00
16690;BME280;8458;52.220;9.884;2023-03-21T01:41:24;100832.22;;;8.45;100.00
16690;BME280;8458;52.220;9.884;2023-03-21T01:43:52;100826.53;;;8.52;100.00
16690;BME280;8458;52.220;9.884;2023-03-21T01:46:28;100823.78;;;8.52;100.00
16690;BME280;8458;52.220;9.884;2023-03-21T01:49:01;100819.44;;;8.56;100.00
16690;BME280;8458;52.220;9.884;2023-03-21T01:51:29;100820.53;;;8.55;100.00
16690;BME280;8458;52.220;9.884;2023-03-21T01:53:57;100813.13;;;8.43;100.00
16690;BME280;8458;52.220;9.884;2023-03-21T01:56:27;100814.34;;;8.48;100.00
16690;BME280;8458;52.220;9.884;2023-03-21T01:58:58;100815.41;;;8.47;100.00
16690;BME280;8458;52.220;9.884;2023-03-21T02:01:28;100812.97;;;8.50;100.00
16690;BME280;8458;52.220;9.884;2023-03-21T02:03:56;100818.75;;;8.49;100.00
16690;BME280;8458;52.220;9.884;2023-03-21T02:06:37;100809.97;;;8.52;100.00
16690;BME280;8458;52.220;9.884;2023-03-21T02:09:07;100806.28;;;8.46;100.00
16690;BME280;8458;52.220;9.884;2023-03-21T02:11:36;100804.94;;;8.49;100.00
16690;BME280;8458;52.220;9.884;2023-03-21T02:14:03;100808.31;;;8.51;100.00
16690;BME280;8458;52.220;9.884;2023-03-21T02:16:39;100803.38;;;8.53;100.00
16690;BME280;8458;52.220;9.884;2023-03-21T02:19:26;100795.56;;;8.50;100.00
16690;BME280;8458;52.220;9.884;2023-03-21T02:22:13;100798.72;;;8.41;100.00
16690;BME280;8458;52.220;9.884;2023-03-21T02:28:00;100792.81;;;8.50;100.00
16690;BME280;8458;52.220;9.884;2023-03-21T02:30:44;100795.56;;;8.50;100.00
16690;BME280;8458;52.220;9.884;2023-03-21T02:33:29;100784.50;;;8.50;100.00
16690;BME280;8458;52.220;9.884;2023-03-21T02:36:13;100783.03;;;8.59;100.00
16690;BME280;8458;52.220;9.884;2023-03-21T02:38:46;100787.81;;;8.64;100.00
16690;BME280;8458;52.220;9.884;2023-03-21T02:41:20;100780.50;;;8.57;100.00
16690;BME280;8458;52.220;9.884;2023-03-21T02:43:54;100776.66;;;8.58;100.00
16690;BME280;8458;52.220;9.884;2023-03-21T02:46:27;100783.53;;;8.56;100.00
16690;BME280;8458;52.220;9.884;2023-03-21T02:49:02;100774.72;;;8.59;100.00
16690;BME280;8458;52.220;9.884;2023-03-21T02:51:33;100776.41;;;8.60;100.00
16690;BME280;8458;52.220;9.884;2023-03-21T02:54:08;100769.94;;;8.54;100.00
16690;BME280;8458;52.220;9.884;2023-03-21T02:56:35;100771.13;;;8.58;100.00
16690;BME280;8458;52.220;9.884;2023-03-21T02:59:03;100765.25;;;8.55;100.00
16690;BME280;8458;52.220;9.884;2023-03-21T03:01:30;100769.44;;;8.57;100.00
16690;BME280;8458;52.220;9.884;2023-03-21T03:03:57;100763.41;;;8.60;100.00
16690;BME280;8458;52.220;9.884;2023-03-21T03:06:26;100766.19;;;8.60;100.00
16690;BME280;8458;52.220;9.884;2023-03-21T03:09:11;100762.22;;;8.56;100.00
16690;BME280;8458;52.220;9.884;2023-03-21T03:11:43;100761.22;;;8.63;100.00
16690;BME280;8458;52.220;9.884;2023-03-21T03:14:26;100765.75;;;8.69;100.00
16690;BME280;8458;52.220;9.884;2023-03-21T03:17:05;100762.09;;;8.63;100.00
16690;BME280;8458;52.220;9.884;2023-03-21T03:19:38;100755.22;;;8.66;100.00
16690;BME280;8458;52.220;9.884;2023-03-21T03:22:09;100761.09;;;8.69;100.00
16690;BME280;8458;52.220;9.884;2023-03-21T03:24:43;100756.22;;;8.76;100.00
16690;BME280;8458;52.220;9.884;2023-03-21T03:27:15;100754.56;;;8.75;100.00
16690;BME280;8458;52.220;9.884;2023-03-21T03:29:45;100760.09;;;8.75;100.00
16690;BME280;8458;52.220;9.884;2023-03-21T03:32:16;100749.53;;;8.72;100.00
16690;BME280;8458;52.220;9.884;2023-03-21T03:34:47;100752.38;;;8.77;100.00
16690;BME280;8458;52.220;9.884;2023-03-21T03:37:18;100752.88;;;8.74;100.00
16690;BME280;8458;52.220;9.884;2023-03-21T03:39:56;100746.28;;;8.75;100.00
16690;BME280;8458;52.220;9.884;2023-03-21T03:42:26;100741.13;;;8.67;100.00
16690;BME280;8458;52.220;9.884;2023-03-21T03:44:54;100755.56;;;8.69;100.00
16690;BME280;8458;52.220;9.884;2023-03-21T03:47:25;100744.16;;;8.66;100.00
16690;BME280;8458;52.220;9.884;2023-03-21T03:49:57;100748.34;;;8.68;100.00
16690;BME280;8458;52.220;9.884;2023-03-21T03:52:30;100750.03;;;8.69;100.00
16690;BME280;8458;52.220;9.884;2023-03-21T03:55:00;100748.84;;;8.65;100.00
16690;BME280;8458;52.220;9.884;2023-03-21T03:57:28;100748.34;;;8.68;100.00
16690;BME280;8458;52.220;9.884;2023-03-21T03:59:55;100744.16;;;8.66;100.00
16690;BME280;8458;52.220;9.884;2023-03-21T04:02:21;100747.16;;;8.64;100.00
16690;BME280;8458;52.220;9.884;2023-03-21T04:04:48;100751.03;;;8.63;100.00
16690;BME280;8458;52.220;9.884;2023-03-21T04:07:17;100749.94;;;8.64;100.00
16690;BME280;8458;52.220;9.884;2023-03-21T04:09:45;100748.53;;;8.61;100.00
16690;BME280;8458;52.220;9.884;2023-03-21T04:12:13;100742.75;;;8.63;100.00
16690;BME280;8458;52.220;9.884;2023-03-21T04:14:39;100744.50;;;8.69;100.00
16690;BME280;8458;52.220;9.884;2023-03-21T04:17:06;100741.63;;;8.64;100.00
16690;BME280;8458;52.220;9.884;2023-03-21T04:19:32;100738.38;;;8.67;100.00
16690;BME280;8458;52.220;9.884;2023-03-21T04:21:59;100739.97;;;8.63;100.00
16690;BME280;8458;52.220;9.884;2023-03-21T04:24:25;100746.66;;;8.67;100.00
16690;BME280;8458;52.220;9.884;2023-03-21T04:26:51;100742.25;;;8.66;100.00
16690;BME280;8458;52.220;9.884;2023-03-21T04:29:19;100733.94;;;8.66;100.00
16690;BME280;8458;52.220;9.884;2023-03-21T04:31:46;100741.63;;;8.64;100.00
16690;BME280;8458;52.220;9.884;2023-03-21T04:34:14;100743.25;;;8.60;100.00
16690;BME280;8458;52.220;9.884;2023-03-21T04:36:40;100742.63;;;8.58;100.00
16690;BME280;8458;52.220;9.884;2023-03-21T04:39:10;100734.28;;;8.53;100.00
16690;BME280;8458;52.220;9.884;2023-03-21T04:41:38;100734.94;;;8.60;100.00
16690;BME280;8458;52.220;9.884;2023-03-21T04:44:04;100736.72;;;8.66;100.00
16690;BME280;8458;52.220;9.884;2023-03-21T04:46:33;100729.50;;;8.65;100.00
16690;BME280;8458;52.220;9.884;2023-03-21T04:49:00;100732.09;;;8.72;100.00
16690;BME280;8458;52.220;9.884;2023-03-21T04:51:27;100732.94;;;8.72;100.00
16690;BME280;8458;52.220;9.884;2023-03-21T04:53:53;100735.72;;;8.72;100.00
16690;BME280;8458;52.220;9.884;2023-03-21T04:56:22;100733.53;;;8.74;100.00
16690;BME280;8458;52.220;9.884;2023-03-21T04:58:54;100740.63;;;8.70;100.00
16690;BME280;8458;52.220;9.884;2023-03-21T05:01:21;100741.50;;;8.71;100.00
16690;BME280;8458;52.220;9.884;2023-03-21T05:03:49;100735.09;;;8.70;100.00
16690;BME280;8458;52.220;9.884;2023-03-21T05:06:15;100728.81;;;8.75;100.00
16690;BME280;8458;52.220;9.884;2023-03-21T05:08:42;100736.53;;;8.73;100.00
16690;BME280;8458;52.220;9.884;2023-03-21T05:11:09;100738.47;;;8.72;100.00
16690;BME280;8458;52.220;9.884;2023-03-21T05:13:35;100726.41;;;8.78;100.00
16690;BME280;8458;52.220;9.884;2023-03-21T05:16:02;100736.34;;;8.79;100.00
16690;BME280;8458;52.220;9.884;2023-03-21T05:18:28;100736.34;;;8.79;100.00
16690;BME280;8458;52.220;9.884;2023-03-21T05:21:00;100733.03;;;8.77;100.00
16690;BME280;8458;52.220;9.884;2023-03-21T05:23:28;100734.97;;;8.77;100.00
16690;BME280;8458;52.220;9.884;2023-03-21T05:25:55;100732.44;;;8.75;100.00
16690;BME280;8458;52.220;9.884;2023-03-21T05:28:22;100734.09;;;8.76;100.00
16690;BME280;8458;52.220;9.884;2023-03-21T05:30:55;100729.44;;;8.77;100.00
16690;BME280;8458;52.220;9.884;2023-03-21T05:33:22;100733.59;;;8.79;100.00
16690;BME280;8458;52.220;9.884;2023-03-21T05:35:49;100733.44;;;8.86;100.00
16690;BME280;8458;52.220;9.884;2023-03-21T05:38:16;100723.78;;;8.89;100.00
16690;BME280;8458;52.220;9.884;2023-03-21T05:40:45;100725.97;;;8.87;100.00
16690;BME280;8458;52.220;9.884;2023-03-21T05:43:11;100731.06;;;8.95;100.00
16690;BME280;8458;52.220;9.884;2023-03-21T05:45:38;100733.09;;;9.00;100.00
16690;BME280;8458;52.220;9.884;2023-03-21T05:48:05;100732.94;;;9.06;100.00
16690;BME280;8458;52.220;9.884;2023-03-21T05:50:31;100726.88;;;9.09;100.00
16690;BME280;8458;52.220;9.884;2023-03-21T05:52:58;100724.69;;;9.11;100.00
16690;BME280;8458;52.220;9.884;2023-03-21T05:55:26;100724.50;;;9.18;100.00
16690;BME280;8458;52.220;9.884;2023-03-21T05:57:52;100720.66;;;9.19;100.00
16690;BME280;8458;52.220;9.884;2023-03-21T06:00:19;100722.09;;;9.22;100.00
16690;BME280;8458;52.220;9.884;2023-03-21T06:02:46;100714.63;;;9.22;100.00
16690;BME280;8458;52.220;9.884;2023-03-21T06:05:13;100712.41;;;9.24;100.00
16690;BME280;8458;52.220;9.884;2023-03-21T06:07:39;100719.13;;;9.28;100.00
16690;BME280;8458;52.220;9.884;2023-03-21T06:10:06;100722.97;;;9.27;100.00
16690;BME280;8458;52.220;9.884;2023-03-21T06:12:34;100721.13;;;9.33;100.00
16690;BME280;8458;52.220;9.884;2023-03-21T06:15:01;100718.94;;;9.35;100.00
16690;BME280;8458;52.220;9.884;2023-03-21T06:17:29;100728.16;;;9.41;100.00
16690;BME280;8458;52.220;9.884;2023-03-21T06:19:56;100724.00;;;9.43;100.00
16690;BME280;8458;52.220;9.884;2023-03-21T06:22:25;100723.44;;;9.41;100.00
16690;BME280;8458;52.220;9.884;2023-03-21T06:24:51;100725.38;;;9.41;100.00
16690;BME280;8458;52.220;9.884;2023-03-21T06:27:18;100737.34;;;9.46;100.00
16690;BME280;8458;52.220;9.884;2023-03-21T06:29:46;100731.50;;;9.43;100.00
16690;BME280;8458;52.220;9.884;2023-03-21T06:32:12;100730.56;;;9.37;100.00
16690;BME280;8458;52.220;9.884;2023-03-21T06:34:40;100729.75;;;9.37;100.00
16690;BME280;8458;52.220;9.884;2023-03-21T06:37:07;100731.75;;;9.41;100.00
16690;BME280;8458;52.220;9.884;2023-03-21T06:39:34;100724.47;;;9.35;100.00
16690;BME280;8458;52.220;9.884;2023-03-21T06:42:01;100723.13;;;9.38;100.00
16690;BME280;8458;52.220;9.884;2023-03-21T06:44:28;100730.66;;;9.42;100.00
16690;BME280;8458;52.220;9.884;2023-03-21T06:46:56;100725.69;;;9.44;100.00
16690;BME280;8458;52.220;9.884;2023-03-21T06:49:22;100730.97;;;9.46;100.00
16690;BME280;8458;52.220;9.884;2023-03-21T06:51:49;100726.78;;;9.43;100.00
16690;BME280;8458;52.220;9.884;2023-03-21T06:54:15;100727.38;;;9.45;100.00
16690;BME280;8458;52.220;9.884;2023-03-21T06:56:43;100736.72;;;9.39;100.00
16690;BME280;8458;52.220;9.884;2023-03-21T06:59:10;100733.34;;;9.37;100.00
16690;BME280;8458;52.220;9.884;2023-03-21T07:01:36;100729.19;;;9.35;100.00
16690;BME280;8458;52.220;9.884;2023-03-21T07:04:04;100726.16;;;9.36;100.00
16690;BME280;8458;52.220;9.884;2023-03-21T07:06:31;100731.75;;;9.41;100.00
16690;BME280;8458;52.220;9.884;2023-03-21T07:08:58;100731.69;;;9.36;100.00
16690;BME280;8458;52.220;9.884;2023-03-21T07:11:25;100731.03;;;9.29;100.00
16690;BME280;8458;52.220;9.884;2023-03-21T07:13:51;100729.50;;;9.38;100.00
16690;BME280;8458;52.220;9.884;2023-03-21T07:16:18;100726.16;;;9.36;100.00
16690;BME280;8458;52.220;9.884;2023-03-21T07:18:46;100736.44;;;9.41;100.00
16690;BME280;8458;52.220;9.884;2023-03-21T07:21:14;100738.25;;;9.30;100.00
16690;BME280;8458;52.220;9.884;2023-03-21T07:23:41;100733.84;;;9.34;100.00
16690;BME280;8458;52.220;9.884;2023-03-21T07:26:07;100733.69;;;9.41;100.00
16690;BME280;8458;52.220;9.884;2023-03-21T07:28:34;100730.16;;;9.45;100.00
16690;BME280;8458;52.220;9.884;2023-03-21T07:31:03;100732.91;;;9.45;100.00
16690;BME280;8458;52.220;9.884;2023-03-21T07:33:31;100733.81;;;9.51;100.00
16690;BME280;8458;52.220;9.884;2023-03-21T07:35:58;100730.22;;;9.50;100.00
16690;BME280;8458;52.220;9.884;2023-03-21T07:38:26;100731.94;;;9.57;100.00
16690;BME280;8458;52.220;9.884;2023-03-21T07:40:57;100722.03;;;9.61;100.00
16690;BME280;8458;52.220;9.884;2023-03-21T07:43:23;100723.66;;;9.57;100.00
16690;BME280;8458;52.220;9.884;2023-03-21T07:45:50;100721.53;;;9.64;100.00
16690;BME280;8458;52.220;9.884;2023-03-21T07:48:16;100717.59;;;9.60;100.00
16690;BME280;8458;52.220;9.884;2023-03-21T07:50:43;100718.16;;;9.62;100.00
16690;BME280;8458;52.220;9.884;2023-03-21T07:53:10;100702.97;;;9.64;100.00
16690;BME280;8458;52.220;9.884;2023-03-21T07:55:38;100707.75;;;9.69;100.00
16690;BME280;8458;52.220;9.884;2023-03-21T07:58:04;100714.44;;;9.73;100.00
16690;BME280;8458;52.220;9.884;2023-03-21T08:00:31;100712.09;;;9.65;100.00
16690;BME280;8458;52.220;9.884;2023-03-21T08:02:59;100722.66;;;9.68;100.00
16690;BME280;8458;52.220;9.884;2023-03-21T08:05:27;100709.44;;;9.70;100.00
16690;BME280;8458;52.220;9.884;2023-03-21T08:07:54;100709.00;;;9.83;100.00
16690;BME280;8458;52.220;9.884;2023-03-21T08:10:21;100713.31;;;9.96;100.00
16690;BME280;8458;52.220;9.884;2023-03-21T08:12:50;100716.00;;;10.13;100.00
16690;BME280;8458;52.220;9.884;2023-03-21T08:15:16;100719.38;;;10.20;100.00
16690;BME280;8458;52.220;9.884;2023-03-21T08:17:43;100718.84;;;10.23;99.27
16690;BME280;8458;52.220;9.884;2023-03-21T08:20:12;100727.63;;;10.37;98.27
16690;BME280;8458;52.220;9.884;2023-03-21T08:22:40;100721.38;;;10.52;98.60
16690;BME280;8458;52.220;9.884;2023-03-21T08:25:09;100718.06;;;10.50;95.62
16690;BME280;8458;52.220;9.884;2023-03-21T08:27:38;100719.19;;;10.54;95.74
16690;BME280;8458;52.220;9.884;2023-03-21T08:30:07;100719.72;;;10.51;94.72
16690;BME280;8458;52.220;9.884;2023-03-21T08:32:34;100712.81;;;10.54;95.15
16690;BME280;8458;52.220;9.884;2023-03-21T08:35:05;100722.00;;;10.59;95.21
16690;BME280;8458;52.220;9.884;2023-03-21T08:37:34;100716.97;;;10.56;95.79
16690;BME280;8458;52.220;9.884;2023-03-21T08:40:01;100718.66;;;10.57;95.09
16690;BME280;8458;52.220;9.884;2023-03-21T08:42:31;100718.69;;;10.63;94.92
16690;BME280;8458;52.220;9.884;2023-03-21T08:44:57;100712.06;;;10.64;94.83
16690;BME280;8458;52.220;9.884;2023-03-21T08:47:25;100719.88;;;10.72;94.00
16690;BME280;8458;52.220;9.884;2023-03-21T08:49:52;100717.16;;;10.77;94.72
16690;BME280;8458;52.220;9.884;2023-03-21T08:52:18;100717.16;;;10.77;94.57
16690;BME280;8458;52.220;9.884;2023-03-21T08:54:45;100724.44;;;10.88;94.04
16690;BME280;8458;52.220;9.884;2023-03-21T08:57:12;100722.19;;;10.80;93.14
16690;BME280;8458;52.220;9.884;2023-03-21T08:59:40;100728.84;;;10.84;93.08
16690;BME280;8458;52.220;9.884;2023-03-21T09:02:06;100724.88;;;10.75;93.53
16690;BME280;8458;52.220;9.884;2023-03-21T09:04:34;100721.31;;;10.80;93.66
16690;BME280;8458;52.220;9.884;2023-03-21T09:07:01;100723.00;;;10.81;93.17
16690;BME280;8458;52.220;9.884;2023-03-21T09:09:29;100725.81;;;10.86;93.28
16690;BME280;8458;52.220;9.884;2023-03-21T09:11:56;100719.13;;;10.82;92.33
16690;BME280;8458;52.220;9.884;2023-03-21T09:14:22;100711.63;;;10.77;92.83
16690;BME280;8458;52.220;9.884;2023-03-21T09:16:49;100707.25;;;10.86;93.17
16690;BME280;8458;52.220;9.884;2023-03-21T09:19:16;100711.13;;;10.90;93.04
16690;BME280;8458;52.220;9.884;2023-03-21T09:21:44;100713.13;;;10.95;92.81
16690;BME280;8458;52.220;9.884;2023-03-21T09:24:10;100714.53;;;10.98;92.94
16690;BME280;8458;52.220;9.884;2023-03-21T09:26:38;100715.69;;;11.07;92.02
16690;BME280;8458;52.220;9.884;2023-03-21T09:29:04;100707.13;;;11.13;91.65
16690;BME280;8458;52.220;9.884;2023-03-21T09:31:32;100712.19;;;11.22;91.34
16690;BME280;8458;52.220;9.884;2023-03-21T09:33:58;100706.41;;;11.28;90.69
16690;BME280;8458;52.220;9.884;2023-03-21T09:36:25;100715.34;;;11.36;90.45
16690;BME280;8458;52.220;9.884;2023-03-21T09:38:53;100717.56;;;11.39;89.84
16690;BME280;8458;52.220;9.884;2023-03-21T09:41:48;100714.81;;;11.44;88.82
16690;BME280;8458;52.220;9.884;2023-03-21T09:44:26;100708.13;;;11.40;89.13
16690;BME280;8458;52.220;9.884;2023-03-21T09:47:01;100705.38;;;11.45;89.37
16690;BME280;8458;52.220;9.884;2023-03-21T09:49:30;100699.28;;;11.48;89.02
16690;BME280;8458;52.220;9.884;2023-03-21T09:52:00;100700.72;;;11.56;88.48
16690;BME280;8458;52.220;9.884;2023-03-21T09:54:34;100709.88;;;11.61;88.50
16690;BME280;8458;52.220;9.884;2023-03-21T09:57:06;100707.69;;;11.63;88.64
16690;BME280;8458;52.220;9.884;2023-03-21T09:59:37;100716.03;;;11.74;87.46
16690;BME280;8458;52.220;9.884;2023-03-21T10:02:18;100701.06;;;11.80;86.31
16690;BME280;8458;52.220;9.884;2023-03-21T10:04:47;100699.16;;;11.86;86.70
16690;BME280;8458;52.220;9.884;2023-03-21T10:07:14;100698.91;;;11.92;85.86
16690;BME280;8458;52.220;9.884;2023-03-21T10:09:45;100700.59;;;11.98;85.59
16690;BME280;8458;52.220;9.884;2023-03-21T10:12:16;100698.34;;;11.90;84.37
16690;BME280;8458;52.220;9.884;2023-03-21T10:14:47;100693.31;;;11.82;84.69
16690;BME280;8458;52.220;9.884;2023-03-21T10:17:21;100701.09;;;11.85;84.27
16690;BME280;8458;52.220;9.884;2023-03-21T10:19:55;100691.09;;;11.84;84.79
16690;BME280;8458;52.220;9.884;2023-03-21T10:22:24;100693.00;;;11.78;85.48
16690;BME280;8458;52.220;9.884;2023-03-21T10:24:52;100695.81;;;11.83;85.83
16690;BME280;8458;52.220;9.884;2023-03-21T10:27:19;100696.66;;;11.84;85.38
16690;BME280;8458;52.220;9.884;2023-03-21T10:29:45;100698.88;;;11.82;85.38
16690;BME280;8458;52.220;9.884;2023-03-21T10:32:14;100694.69;;;11.79;85.77
16690;BME280;8458;52.220;9.884;2023-03-21T10:34:44;100698.00;;;11.81;86.54
16690;BME280;8458;52.220;9.884;2023-03-21T10:37:13;100682.75;;;11.79;84.71
16690;BME280;8458;52.220;9.884;2023-03-21T10:39:42;100701.06;;;11.70;84.96
16690;BME280;8458;52.220;9.884;2023-03-21T10:42:17;100700.22;;;11.74;86.37
16690;BME280;8458;52.220;9.884;2023-03-21T10:44:47;100699.38;;;11.74;87.19
16690;BME280;8458;52.220;9.884;2023-03-21T10:47:19;100695.50;;;11.70;88.20
16690;BME280;8458;52.220;9.884;2023-03-21T10:49:46;100694.34;;;11.65;88.83
16690;BME280;8458;52.220;9.884;2023-03-21T10:52:17;100691.56;;;11.60;89.13
16690;BME280;8458;52.220;9.884;2023-03-21T10:54:44;100692.13;;;11.68;90.07
16690;BME280;8458;52.220;9.884;2023-03-21T10:57:14;100694.91;;;11.62;90.10
16690;BME280;8458;52.220;9.884;2023-03-21T10:59:45;100686.56;;;11.57;90.15
16690;BME280;8458;52.220;9.884;2023-03-21T11:02:17;100687.66;;;11.61;91.13
16690;BME280;8458;52.220;9.884;2023-03-21T11:04:45;100685.75;;;11.62;91.40
16690;BME280;8458;52.220;9.884;2023-03-21T11:07:13;100684.88;;;11.56;91.79
16690;BME280;8458;52.220;9.884;2023-03-21T11:09:45;100687.09;;;11.54;92.29
16690;BME280;8458;52.220;9.884;2023-03-21T11:12:14;100685.41;;;11.53;94.63
16690;BME280;8458;52.220;9.884;2023-03-21T11:14:43;100677.66;;;11.55;95.48
16690;BME280;8458;52.220;9.884;2023-03-21T11:17:21;100676.28;;;11.53;96.25
16690;BME280;8458;52.220;9.884;2023-03-21T11:19:49;100668.75;;;11.53;96.41
16690;BME280;8458;52.220;9.884;2023-03-21T11:22:18;100670.16;;;11.56;96.35
16690;BME280;8458;52.220;9.884;2023-03-21T11:24:48;100675.44;;;11.57;96.74
16690;BME280;8458;52.220;9.884;2023-03-21T11:27:17;100677.09;;;11.53;97.41
16690;BME280;8458;52.220;9.884;2023-03-21T11:29:46;100669.31;;;11.55;96.42
16690;BME280;8458;52.220;9.884;2023-03-21T11:32:21;100677.69;;;11.60;96.48
16690;BME280;8458;52.220;9.884;2023-03-21T11:34:51;100671.03;;;11.66;97.58
16690;BME280;8458;52.220;9.884;2023-03-21T11:37:24;100666.00;;;11.58;97.69
16690;BME280;8458;52.220;9.884;2023-03-21T11:39:56;100662.94;;;11.60;97.38
16690;BME280;8458;52.220;9.884;2023-03-21T11:42:38;100667.13;;;11.62;98.26
16690;BME280;8458;52.220;9.884;2023-03-21T11:45:11;100659.91;;;11.61;98.50
16690;BME280;8458;52.220;9.884;2023-03-21T11:47:39;100655.97;;;11.52;98.54
16690;BME280;8458;52.220;9.884;2023-03-21T11:50:19;100652.09;;;11.53;99.18
16690;BME280;8458;52.220;9.884;2023-03-21T11:52:58;100650.97;;;11.49;100.00
16690;BME280;8458;52.220;9.884;2023-03-21T11:55:35;100643.75;;;11.48;100.00
16690;BME280;8458;52.220;9.884;2023-03-21T11:58:17;100648.16;;;11.39;100.00
16690;BME280;8458;52.220;9.884;2023-03-21T12:00:53;100647.03;;;11.40;100.00
16690;BME280;8458;52.220;9.884;2023-03-21T12:06:34;100642.63;;;11.44;100.00
16690;BME280;8458;52.220;9.884;2023-03-21T12:09:22;100639.31;;;11.47;100.00
16690;BME280;8458;52.220;9.884;2023-03-21T12:11:58;100638.22;;;11.48;100.00
16690;BME280;8458;52.220;9.884;2023-03-21T12:14:36;100637.59;;;11.36;100.00
16690;BME280;8458;52.220;9.884;2023-03-21T12:17:12;100632.59;;;11.38;100.00
16690;BME280;8458;52.220;9.884;2023-03-21T12:20:13;100627.88;;;11.38;100.00
16690;BME280;8458;52.220;9.884;2023-03-21T12:22:51;100623.72;;;11.36;100.00
16690;BME280;8458;52.220;9.884;2023-03-21T12:25:26;100622.31;;;11.28;100.00
16690;BME280;8458;52.220;9.884;2023-03-21T12:28:02;100615.63;;;11.29;100.00
16690;BME280;8458;52.220;9.884;2023-03-21T12:30:41;100620.69;;;11.37;100.00
16690;BME280;8458;52.220;9.884;2023-03-21T12:33:24;100614.25;;;11.32;100.00
16690;BME280;8458;52.220;9.884;2023-03-21T12:36:12;100613.69;;;11.29;100.00
16690;BME280;8458;52.220;9.884;2023-03-21T12:38:51;100609.25;;;11.23;100.00
16690;BME280;8458;52.220;9.884;2023-03-21T12:41:28;100602.28;;;11.21;100.00
16690;BME280;8458;52.220;9.884;2023-03-21T12:44:02;100604.78;;;11.27;100.00
16690;BME280;8458;52.220;9.884;2023-03-21T12:46:36;100607.06;;;11.36;100.00
16690;BME280;8458;52.220;9.884;2023-03-21T12:49:12;100602.63;;;11.40;100.00
16690;BME280;8458;52.220;9.884;2023-03-21T12:51:45;100604.84;;;11.43;100.00
16690;BME280;8458;52.220;9.884;2023-03-21T12:54:22;100612.34;;;11.42;100.00
16690;BME280;8458;52.220;9.884;2023-03-21T12:57:00;100600.44;;;11.42;100.00
16690;BME280;8458;52.220;9.884;2023-03-21T12:59:35;100600.97;;;11.39;100.00
16690;BME280;8458;52.220;9.884;2023-03-21T13:02:16;100589.88;;;11.39;100.00
16690;BME280;8458;52.220;9.884;2023-03-21T13:04:55;100595.97;;;11.46;100.00
16690;BME280;8458;52.220;9.884;2023-03-21T13:07:27;100590.41;;;11.46;100.00
16690;BME280;8458;52.220;9.884;2023-03-21T13:09:56;100595.44;;;11.44;100.00
16690;BME280;8458;52.220;9.884;2023-03-21T13:12:47;100588.47;;;11.41;100.00
16690;BME280;8458;52.220;9.884;2023-03-21T13:18:53;100575.44;;;11.47;100.00
16690;BME280;8458;52.220;9.884;2023-03-21T13:21:40;100567.66;;;11.39;100.00
16690;BME280;8458;52.220;9.884;2023-03-21T13:24:31;100568.22;;;11.36;100.00